sensor_id;sensor_type;location;lat;lon;timestamp;temperature;humidity
15888;DHT22;56032;51.324;12.376;2022-07-23T00:00:33;19.90;99.90
15888;DHT22;56032;51.324;12.376;2022-07-23T00:03:05;19.90;99.90
15888;DHT22;56032;51.324;12.376;2022-07-23T00:05:34;19.70;99.90
15888;DHT22;56032;51.324;12.376;2022-07-23T00:08:04;19.80;99.90
15888;DHT22;56032;51.324;12.376;2022-07-23T00:10:37;19.80;99.90
15888;DHT22;56032;51.324;12.376;2022-07-23T00:13:05;19.60;99.90
15888;DHT22;56032;51.324;12.376;2022-07-23T00:15:33;19.80;99.90
15888;DHT22;56032;51.324;12.376;2022-07-23T00:18:02;19.70;99.90
15888;DHT22;56032;51.324;12.376;2022-07-23T00:20:30;19.60;99.90
15888;DHT22;56032;51.324;12.376;2022-07-23T00:23:00;19.90;99.90
15888;DHT22;56032;51.324;12.376;2022-07-23T00:25:28;19.70;99.90
15888;DHT22;56032;51.324;12.376;2022-07-23T00:27:57;19.60;99.90
15888;DHT22;56032;51.324;12.376;2022-07-23T00:30:26;19.50;99.90
15888;DHT22;56032;51.324;12.376;2022-07-23T00:32:57;19.30;99.90
15888;DHT22;56032;51.324;12.376;2022-07-23T00:35:26;19.30;99.90
15888;DHT22;56032;51.324;12.376;2022-07-23T00:37:55;19.30;99.90
15888;DHT22;56032;51.324;12.376;2022-07-23T00:40:25;19.20;99.90
15888;DHT22;56032;51.324;12.376;2022-07-23T00:42:55;19.30;99.90
15888;DHT22;56032;51.324;12.376;2022-07-23T00:45:23;19.40;99.90
15888;DHT22;56032;51.324;12.376;2022-07-23T00:47:51;19.30;99.90
15888;DHT22;56032;51.324;12.376;2022-07-23T00:50:20;19.40;99.90
15888;DHT22;56032;51.324;12.376;2022-07-23T00:52:48;19.50;99.90
15888;DHT22;56032;51.324;12.376;2022-07-23T00:55:16;19.50;99.90
15888;DHT22;56032;51.324;12.376;2022-07-23T00:57:46;19.50;99.90
15888;DHT22;56032;51.324;12.376;2022-07-23T01:00:15;19.40;99.90
15888;DHT22;56032;51.324;12.376;2022-07-23T01:02:43;19.20;99.90
15888;DHT22;56032;51.324;12.376;2022-07-23T01:05:14;19.40;99.90
15888;DHT22;56032;51.324;12.376;2022-07-23T01:07:43;19.40;99.90
15888;DHT22;56032;51.324;12.376;2022-07-23T01:10:12;19.20;99.90
15888;DHT22;56032;51.324;12.376;2022-07-23T01:13:01;19.20;99.90
15888;DHT22;56032;51.324;12.376;2022-07-23T01:15:29;19.10;99.90
15888;DHT22;56032;51.324;12.376;2022-07-23T01:17:58;19.00;99.90
15888;DHT22;56032;51.324;12.376;2022-07-23T01:20:26;19.00;99.90
15888;DHT22;56032;51.324;12.376;2022-07-23T01:22:56;19.00;99.90
15888;DHT22;56032;51.324;12.376;2022-07-23T01:25:24;19.10;99.90
15888;DHT22;56032;51.324;12.376;2022-07-23T01:27:53;19.00;99.90
15888;DHT22;56032;51.324;12.376;2022-07-23T01:30:21;19.00;99.90
15888;DHT22;56032;51.324;12.376;2022-07-23T01:32:50;19.20;99.90
15888;DHT22;56032;51.324;12.376;2022-07-23T01:35:18;19.10;99.90
15888;DHT22;56032;51.324;12.376;2022-07-23T01:37:46;19.00;99.90
15888;DHT22;56032;51.324;12.376;2022-07-23T01:40:16;19.00;99.90
15888;DHT22;56032;51.324;12.376;2022-07-23T01:42:46;19.00;99.90
15888;DHT22;56032;51.324;12.376;2022-07-23T01:45:14;19.10;99.90
15888;DHT22;56032;51.324;12.376;2022-07-23T01:47:42;19.30;99.90
15888;DHT22;56032;51.324;12.376;2022-07-23T01:50:11;19.30;99.90
15888;DHT22;56032;51.324;12.376;2022-07-23T01:52:39;19.10;99.90
15888;DHT22;56032;51.324;12.376;2022-07-23T01:55:08;19.20;99.90
15888;DHT22;56032;51.324;12.376;2022-07-23T01:57:46;19.20;99.90
15888;DHT22;56032;51.324;12.376;2022-07-23T02:00:14;19.10;99.90
15888;DHT22;56032;51.324;12.376;2022-07-23T02:02:43;19.00;99.90
15888;DHT22;56032;51.324;12.376;2022-07-23T02:05:11;18.90;99.90
15888;DHT22;56032;51.324;12.376;2022-07-23T02:07:41;19.10;99.90
15888;DHT22;56032;51.324;12.376;2022-07-23T02:10:09;19.40;99.90
15888;DHT22;56032;51.324;12.376;2022-07-23T02:12:37;19.30;99.90
15888;DHT22;56032;51.324;12.376;2022-07-23T02:15:08;19.20;99.90
15888;DHT22;56032;51.324;12.376;2022-07-23T02:17:39;19.10;99.90
15888;DHT22;56032;51.324;12.376;2022-07-23T02:20:08;19.00;99.90
15888;DHT22;56032;51.324;12.376;2022-07-23T02:22:37;19.30;99.90
15888;DHT22;56032;51.324;12.376;2022-07-23T02:25:06;19.30;99.90
15888;DHT22;56032;51.324;12.376;2022-07-23T02:27:35;19.50;99.90
15888;DHT22;56032;51.324;12.376;2022-07-23T02:30:04;19.50;99.90
15888;DHT22;56032;51.324;12.376;2022-07-23T02:32:34;19.20;99.90
15888;DHT22;56032;51.324;12.376;2022-07-23T02:35:02;19.20;99.90
15888;DHT22;56032;51.324;12.376;2022-07-23T02:37:31;19.10;99.90
15888;DHT22;56032;51.324;12.376;2022-07-23T02:39:59;19.30;99.90
15888;DHT22;56032;51.324;12.376;2022-07-23T02:42:28;19.30;99.90
15888;DHT22;56032;51.324;12.376;2022-07-23T02:44:57;19.10;99.90
15888;DHT22;56032;51.324;12.376;2022-07-23T02:47:25;19.10;99.90
15888;DHT22;56032;51.324;12.376;2022-07-23T02:49:55;19.30;99.90
15888;DHT22;56032;51.324;12.376;2022-07-23T02:52:23;19.30;99.90
15888;DHT22;56032;51.324;12.376;2022-07-23T02:54:51;19.30;99.90
15888;DHT22;56032;51.324;12.376;2022-07-23T02:57:19;19.30;99.90
15888;DHT22;56032;51.324;12.376;2022-07-23T02:59:48;19.30;99.90
15888;DHT22;56032;51.324;12.376;2022-07-23T03:02:16;19.00;99.90
15888;DHT22;56032;51.324;12.376;2022-07-23T03:04:44;18.70;99.90
15888;DHT22;56032;51.324;12.376;2022-07-23T03:07:14;18.60;99.90
15888;DHT22;56032;51.324;12.376;2022-07-23T03:09:42;18.80;99.90
15888;DHT22;56032;51.324;12.376;2022-07-23T03:12:10;18.70;99.90
15888;DHT22;56032;51.324;12.376;2022-07-23T03:14:40;18.60;99.90
15888;DHT22;56032;51.324;12.376;2022-07-23T03:17:09;18.60;99.90
15888;DHT22;56032;51.324;12.376;2022-07-23T03:19:37;18.50;99.90
15888;DHT22;56032;51.324;12.376;2022-07-23T03:22:06;18.60;99.90
15888;DHT22;56032;51.324;12.376;2022-07-23T03:24:35;18.30;99.90
15888;DHT22;56032;51.324;12.376;2022-07-23T03:27:22;18.30;99.90
15888;DHT22;56032;51.324;12.376;2022-07-23T03:29:51;18.20;99.90
15888;DHT22;56032;51.324;12.376;2022-07-23T03:32:20;18.20;99.90
15888;DHT22;56032;51.324;12.376;2022-07-23T03:34:48;18.30;99.90
15888;DHT22;56032;51.324;12.376;2022-07-23T03:37:18;18.40;99.90
15888;DHT22;56032;51.324;12.376;2022-07-23T03:39:48;18.40;99.90
15888;DHT22;56032;51.324;12.376;2022-07-23T03:42:18;18.40;99.90
15888;DHT22;56032;51.324;12.376;2022-07-23T03:44:53;18.30;99.90
15888;DHT22;56032;51.324;12.376;2022-07-23T03:47:40;18.40;99.90
15888;DHT22;56032;51.324;12.376;2022-07-23T03:50:10;18.30;99.90
15888;DHT22;56032;51.324;12.376;2022-07-23T03:52:38;18.20;99.90
15888;DHT22;56032;51.324;12.376;2022-07-23T03:55:08;18.20;99.90
15888;DHT22;56032;51.324;12.376;2022-07-23T03:57:37;18.20;99.90
15888;DHT22;56032;51.324;12.376;2022-07-23T04:00:06;18.10;99.90
15888;DHT22;56032;51.324;12.376;2022-07-23T04:02:35;18.10;99.90
15888;DHT22;56032;51.324;12.376;2022-07-23T04:05:04;18.00;99.90
15888;DHT22;56032;51.324;12.376;2022-07-23T04:07:33;18.60;99.90
15888;DHT22;56032;51.324;12.376;2022-07-23T04:10:01;18.70;99.90
15888;DHT22;56032;51.324;12.376;2022-07-23T04:12:31;19.00;99.90
15888;DHT22;56032;51.324;12.376;2022-07-23T04:14:59;18.80;99.90
15888;DHT22;56032;51.324;12.376;2022-07-23T04:17:27;18.90;99.90
15888;DHT22;56032;51.324;12.376;2022-07-23T04:19:56;18.70;99.90
15888;DHT22;56032;51.324;12.376;2022-07-23T04:22:25;18.60;99.90
15888;DHT22;56032;51.324;12.376;2022-07-23T04:24:54;18.80;99.90
15888;DHT22;56032;51.324;12.376;2022-07-23T04:27:22;18.80;99.90
15888;DHT22;56032;51.324;12.376;2022-07-23T04:29:52;18.60;99.90
15888;DHT22;56032;51.324;12.376;2022-07-23T04:32:20;18.50;99.90
15888;DHT22;56032;51.324;12.376;2022-07-23T04:34:49;18.50;99.90
15888;DHT22;56032;51.324;12.376;2022-07-23T04:37:17;18.40;99.90
15888;DHT22;56032;51.324;12.376;2022-07-23T04:39:46;18.40;99.90
15888;DHT22;56032;51.324;12.376;2022-07-23T04:42:14;18.60;99.90
15888;DHT22;56032;51.324;12.376;2022-07-23T04:44:42;18.40;99.90
15888;DHT22;56032;51.324;12.376;2022-07-23T04:47:12;18.30;99.90
15888;DHT22;56032;51.324;12.376;2022-07-23T04:49:41;18.10;99.90
15888;DHT22;56032;51.324;12.376;2022-07-23T04:52:09;17.90;99.90
15888;DHT22;56032;51.324;12.376;2022-07-23T04:54:37;17.60;99.90
15888;DHT22;56032;51.324;12.376;2022-07-23T04:57:07;17.40;99.90
15888;DHT22;56032;51.324;12.376;2022-07-23T04:59:37;17.30;99.90
15888;DHT22;56032;51.324;12.376;2022-07-23T05:02:06;17.20;99.90
15888;DHT22;56032;51.324;12.376;2022-07-23T05:04:35;17.20;99.90
15888;DHT22;56032;51.324;12.376;2022-07-23T05:07:05;17.20;99.90
15888;DHT22;56032;51.324;12.376;2022-07-23T05:09:34;17.30;99.90
15888;DHT22;56032;51.324;12.376;2022-07-23T05:12:02;17.50;99.90
15888;DHT22;56032;51.324;12.376;2022-07-23T05:14:30;18.00;99.90
15888;DHT22;56032;51.324;12.376;2022-07-23T05:16:59;18.00;99.90
15888;DHT22;56032;51.324;12.376;2022-07-23T05:19:27;18.00;99.90
15888;DHT22;56032;51.324;12.376;2022-07-23T05:21:57;17.70;99.90
15888;DHT22;56032;51.324;12.376;2022-07-23T05:24:25;17.50;99.90
15888;DHT22;56032;51.324;12.376;2022-07-23T05:26:53;17.20;99.90
15888;DHT22;56032;51.324;12.376;2022-07-23T05:29:25;17.00;99.90
15888;DHT22;56032;51.324;12.376;2022-07-23T05:31:53;16.80;99.90
15888;DHT22;56032;51.324;12.376;2022-07-23T05:34:22;16.90;99.90
15888;DHT22;56032;51.324;12.376;2022-07-23T05:36:50;17.10;99.90
15888;DHT22;56032;51.324;12.376;2022-07-23T05:39:20;17.30;99.90
15888;DHT22;56032;51.324;12.376;2022-07-23T05:41:48;17.10;99.90
15888;DHT22;56032;51.324;12.376;2022-07-23T05:44:16;17.10;99.90
15888;DHT22;56032;51.324;12.376;2022-07-23T05:46:45;17.20;99.90
15888;DHT22;56032;51.324;12.376;2022-07-23T05:49:13;17.10;99.90
15888;DHT22;56032;51.324;12.376;2022-07-23T05:51:41;17.20;99.90
15888;DHT22;56032;51.324;12.376;2022-07-23T05:54:12;17.70;99.90
15888;DHT22;56032;51.324;12.376;2022-07-23T05:56:42;17.50;99.90
15888;DHT22;56032;51.324;12.376;2022-07-23T05:59:10;17.50;99.90
15888;DHT22;56032;51.324;12.376;2022-07-23T06:01:40;17.50;99.90
15888;DHT22;56032;51.324;12.376;2022-07-23T06:04:08;17.40;99.90
15888;DHT22;56032;51.324;12.376;2022-07-23T06:06:37;17.20;99.90
15888;DHT22;56032;51.324;12.376;2022-07-23T06:09:05;17.30;99.90
15888;DHT22;56032;51.324;12.376;2022-07-23T06:11:35;17.30;99.90
15888;DHT22;56032;51.324;12.376;2022-07-23T06:14:05;17.50;99.90
15888;DHT22;56032;51.324;12.376;2022-07-23T06:16:35;17.70;99.90
15888;DHT22;56032;51.324;12.376;2022-07-23T06:19:03;17.70;99.90
15888;DHT22;56032;51.324;12.376;2022-07-23T06:21:31;18.10;99.90
15888;DHT22;56032;51.324;12.376;2022-07-23T06:24:15;18.10;99.90
15888;DHT22;56032;51.324;12.376;2022-07-23T06:26:43;18.00;99.90
15888;DHT22;56032;51.324;12.376;2022-07-23T06:29:13;17.90;99.90
15888;DHT22;56032;51.324;12.376;2022-07-23T06:31:41;17.80;99.90
15888;DHT22;56032;51.324;12.376;2022-07-23T06:34:12;17.70;99.90
15888;DHT22;56032;51.324;12.376;2022-07-23T06:36:40;17.90;99.90
15888;DHT22;56032;51.324;12.376;2022-07-23T06:39:10;18.00;99.90
15888;DHT22;56032;51.324;12.376;2022-07-23T06:41:39;17.80;99.90
15888;DHT22;56032;51.324;12.376;2022-07-23T06:44:07;18.10;99.90
15888;DHT22;56032;51.324;12.376;2022-07-23T06:46:38;18.30;99.90
15888;DHT22;56032;51.324;12.376;2022-07-23T06:49:07;18.30;99.90
15888;DHT22;56032;51.324;12.376;2022-07-23T06:51:35;18.40;99.90
15888;DHT22;56032;51.324;12.376;2022-07-23T06:54:04;18.30;99.90
15888;DHT22;56032;51.324;12.376;2022-07-23T06:56:32;18.50;99.90
15888;DHT22;56032;51.324;12.376;2022-07-23T06:59:00;18.50;99.90
15888;DHT22;56032;51.324;12.376;2022-07-23T07:01:30;18.70;99.90
15888;DHT22;56032;51.324;12.376;2022-07-23T07:04:00;18.60;99.90
15888;DHT22;56032;51.324;12.376;2022-07-23T07:06:29;18.70;99.90
15888;DHT22;56032;51.324;12.376;2022-07-23T07:08:57;18.80;99.90
15888;DHT22;56032;51.324;12.376;2022-07-23T07:11:26;18.80;99.90
15888;DHT22;56032;51.324;12.376;2022-07-23T07:13:55;18.90;99.90
15888;DHT22;56032;51.324;12.376;2022-07-23T07:16:24;18.80;99.90
15888;DHT22;56032;51.324;12.376;2022-07-23T07:18:58;19.00;99.90
15888;DHT22;56032;51.324;12.376;2022-07-23T07:21:30;19.30;99.90
15888;DHT22;56032;51.324;12.376;2022-07-23T07:23:58;19.30;99.90
15888;DHT22;56032;51.324;12.376;2022-07-23T07:26:27;19.40;99.90
15888;DHT22;56032;51.324;12.376;2022-07-23T07:28:57;19.10;99.90
15888;DHT22;56032;51.324;12.376;2022-07-23T07:31:26;19.20;99.90
15888;DHT22;56032;51.324;12.376;2022-07-23T07:33:54;19.10;99.90
15888;DHT22;56032;51.324;12.376;2022-07-23T07:36:24;18.80;99.90
15888;DHT22;56032;51.324;12.376;2022-07-23T07:38:53;18.90;99.90
15888;DHT22;56032;51.324;12.376;2022-07-23T07:41:22;18.90;99.90
15888;DHT22;56032;51.324;12.376;2022-07-23T07:43:50;19.10;99.90
15888;DHT22;56032;51.324;12.376;2022-07-23T07:46:19;19.60;99.90
15888;DHT22;56032;51.324;12.376;2022-07-23T07:48:47;19.90;99.90
15888;DHT22;56032;51.324;12.376;2022-07-23T07:51:23;20.10;99.90
15888;DHT22;56032;51.324;12.376;2022-07-23T07:53:51;19.90;99.90
15888;DHT22;56032;51.324;12.376;2022-07-23T07:56:21;19.60;99.90
15888;DHT22;56032;51.324;12.376;2022-07-23T07:58:50;19.70;99.90
15888;DHT22;56032;51.324;12.376;2022-07-23T08:01:18;19.70;99.90
15888;DHT22;56032;51.324;12.376;2022-07-23T08:03:47;19.60;99.90
15888;DHT22;56032;51.324;12.376;2022-07-23T08:06:16;19.50;99.90
15888;DHT22;56032;51.324;12.376;2022-07-23T08:08:46;19.10;99.90
15888;DHT22;56032;51.324;12.376;2022-07-23T08:11:15;19.20;99.90
15888;DHT22;56032;51.324;12.376;2022-07-23T08:13:45;19.40;99.90
15888;DHT22;56032;51.324;12.376;2022-07-23T08:16:13;19.60;99.90
15888;DHT22;56032;51.324;12.376;2022-07-23T08:18:41;19.80;99.90
15888;DHT22;56032;51.324;12.376;2022-07-23T08:21:10;19.70;99.90
15888;DHT22;56032;51.324;12.376;2022-07-23T08:23:38;19.40;99.90
15888;DHT22;56032;51.324;12.376;2022-07-23T08:26:06;19.30;99.90
15888;DHT22;56032;51.324;12.376;2022-07-23T08:28:36;19.30;99.90
15888;DHT22;56032;51.324;12.376;2022-07-23T08:31:05;19.20;99.90
15888;DHT22;56032;51.324;12.376;2022-07-23T08:33:34;19.40;99.90
15888;DHT22;56032;51.324;12.376;2022-07-23T08:36:03;19.40;99.90
15888;DHT22;56032;51.324;12.376;2022-07-23T08:38:33;19.10;99.90
15888;DHT22;56032;51.324;12.376;2022-07-23T08:41:02;19.30;99.90
15888;DHT22;56032;51.324;12.376;2022-07-23T08:43:33;19.50;99.90
15888;DHT22;56032;51.324;12.376;2022-07-23T08:46:03;19.40;99.90
15888;DHT22;56032;51.324;12.376;2022-07-23T08:48:33;19.50;99.90
15888;DHT22;56032;51.324;12.376;2022-07-23T08:51:05;19.60;99.90
15888;DHT22;56032;51.324;12.376;2022-07-23T08:53:35;19.60;99.90
15888;DHT22;56032;51.324;12.376;2022-07-23T08:56:05;19.70;99.90
15888;DHT22;56032;51.324;12.376;2022-07-23T08:58:35;19.40;99.90
15888;DHT22;56032;51.324;12.376;2022-07-23T09:01:04;19.40;99.90
15888;DHT22;56032;51.324;12.376;2022-07-23T09:03:34;19.50;99.90
15888;DHT22;56032;51.324;12.376;2022-07-23T09:06:05;19.60;99.90
15888;DHT22;56032;51.324;12.376;2022-07-23T09:08:35;19.90;99.90
15888;DHT22;56032;51.324;12.376;2022-07-23T09:11:04;19.90;99.90
15888;DHT22;56032;51.324;12.376;2022-07-23T09:13:34;19.80;99.90
15888;DHT22;56032;51.324;12.376;2022-07-23T09:16:03;19.60;99.90
15888;DHT22;56032;51.324;12.376;2022-07-23T09:18:38;19.60;99.90
15888;DHT22;56032;51.324;12.376;2022-07-23T09:21:07;19.60;99.90
15888;DHT22;56032;51.324;12.376;2022-07-23T09:23:40;19.60;99.90
15888;DHT22;56032;51.324;12.376;2022-07-23T09:26:22;19.40;99.90
15888;DHT22;56032;51.324;12.376;2022-07-23T09:28:52;19.30;99.90
15888;DHT22;56032;51.324;12.376;2022-07-23T09:31:21;19.00;99.90
15888;DHT22;56032;51.324;12.376;2022-07-23T09:33:51;18.90;99.90
15888;DHT22;56032;51.324;12.376;2022-07-23T09:36:28;19.00;99.90
15888;DHT22;56032;51.324;12.376;2022-07-23T09:38:57;19.30;99.90
15888;DHT22;56032;51.324;12.376;2022-07-23T09:41:25;19.60;99.90
15888;DHT22;56032;51.324;12.376;2022-07-23T09:44:06;19.60;99.90
15888;DHT22;56032;51.324;12.376;2022-07-23T09:46:34;19.90;99.90
15888;DHT22;56032;51.324;12.376;2022-07-23T09:49:11;19.90;99.90
15888;DHT22;56032;51.324;12.376;2022-07-23T09:51:49;20.10;99.90
15888;DHT22;56032;51.324;12.376;2022-07-23T09:57:06;20.20;99.90
15888;DHT22;56032;51.324;12.376;2022-07-23T09:59:37;20.00;99.90
15888;DHT22;56032;51.324;12.376;2022-07-23T10:02:06;19.90;99.90
15888;DHT22;56032;51.324;12.376;2022-07-23T10:04:36;20.00;99.90
15888;DHT22;56032;51.324;12.376;2022-07-23T10:07:06;20.00;99.90
15888;DHT22;56032;51.324;12.376;2022-07-23T10:09:36;20.00;99.90
15888;DHT22;56032;51.324;12.376;2022-07-23T10:12:05;19.90;99.90
15888;DHT22;56032;51.324;12.376;2022-07-23T10:14:44;19.60;99.90
15888;DHT22;56032;51.324;12.376;2022-07-23T10:17:12;19.70;99.90
15888;DHT22;56032;51.324;12.376;2022-07-23T10:19:42;19.70;99.90
15888;DHT22;56032;51.324;12.376;2022-07-23T10:22:11;19.90;99.90
15888;DHT22;56032;51.324;12.376;2022-07-23T10:24:45;19.80;99.90
15888;DHT22;56032;51.324;12.376;2022-07-23T10:30:04;19.90;99.90
15888;DHT22;56032;51.324;12.376;2022-07-23T10:32:37;19.70;99.90
15888;DHT22;56032;51.324;12.376;2022-07-23T10:35:09;19.60;99.90
15888;DHT22;56032;51.324;12.376;2022-07-23T10:37:38;19.50;99.90
15888;DHT22;56032;51.324;12.376;2022-07-23T10:40:12;19.70;99.90
15888;DHT22;56032;51.324;12.376;2022-07-23T10:42:40;19.70;99.90
15888;DHT22;56032;51.324;12.376;2022-07-23T10:45:25;19.80;99.90
15888;DHT22;56032;51.324;12.376;2022-07-23T10:47:54;19.80;99.90
15888;DHT22;56032;51.324;12.376;2022-07-23T10:50:24;19.70;99.90
15888;DHT22;56032;51.324;12.376;2022-07-23T10:53:11;19.80;99.90
15888;DHT22;56032;51.324;12.376;2022-07-23T10:55:42;20.00;99.90
15888;DHT22;56032;51.324;12.376;2022-07-23T10:58:10;20.20;99.90
15888;DHT22;56032;51.324;12.376;2022-07-23T11:00:39;20.30;99.90
15888;DHT22;56032;51.324;12.376;2022-07-23T11:05:52;20.30;99.90
15888;DHT22;56032;51.324;12.376;2022-07-23T11:08:20;20.40;99.90
15888;DHT22;56032;51.324;12.376;2022-07-23T11:10:50;20.40;99.90
15888;DHT22;56032;51.324;12.376;2022-07-23T11:22:07;20.70;99.90
15888;DHT22;56032;51.324;12.376;2022-07-23T11:24:35;20.40;99.90
15888;DHT22;56032;51.324;12.376;2022-07-23T11:27:18;20.50;99.90
15888;DHT22;56032;51.324;12.376;2022-07-23T11:30:04;20.40;99.90
15888;DHT22;56032;51.324;12.376;2022-07-23T11:32:37;20.60;99.90
15888;DHT22;56032;51.324;12.376;2022-07-23T11:35:19;20.50;99.90
15888;DHT22;56032;51.324;12.376;2022-07-23T11:37:49;20.50;99.90
15888;DHT22;56032;51.324;12.376;2022-07-23T11:40:20;20.70;99.90
15888;DHT22;56032;51.324;12.376;2022-07-23T11:42:53;20.80;99.90
15888;DHT22;56032;51.324;12.376;2022-07-23T11:45:22;20.80;99.90
15888;DHT22;56032;51.324;12.376;2022-07-23T11:47:50;20.80;99.90
15888;DHT22;56032;51.324;12.376;2022-07-23T11:50:19;20.80;99.90
15888;DHT22;56032;51.324;12.376;2022-07-23T11:52:48;20.90;99.90
15888;DHT22;56032;51.324;12.376;2022-07-23T11:55:17;21.30;99.90
15888;DHT22;56032;51.324;12.376;2022-07-23T11:57:46;21.50;99.90
15888;DHT22;56032;51.324;12.376;2022-07-23T12:00:16;21.70;99.90
15888;DHT22;56032;51.324;12.376;2022-07-23T12:02:45;21.60;99.90
15888;DHT22;56032;51.324;12.376;2022-07-23T12:05:14;21.50;99.90
15888;DHT22;56032;51.324;12.376;2022-07-23T12:07:43;21.90;99.90
15888;DHT22;56032;51.324;12.376;2022-07-23T12:10:14;22.10;99.90
15888;DHT22;56032;51.324;12.376;2022-07-23T12:12:43;22.00;99.90
15888;DHT22;56032;51.324;12.376;2022-07-23T12:15:12;21.90;99.90
15888;DHT22;56032;51.324;12.376;2022-07-23T12:17:41;22.10;99.90
15888;DHT22;56032;51.324;12.376;2022-07-23T12:20:17;22.20;99.90
15888;DHT22;56032;51.324;12.376;2022-07-23T12:22:47;22.20;99.90
15888;DHT22;56032;51.324;12.376;2022-07-23T12:25:18;22.30;99.90
15888;DHT22;56032;51.324;12.376;2022-07-23T12:27:57;22.30;99.90
15888;DHT22;56032;51.324;12.376;2022-07-23T12:30:26;22.10;99.90
15888;DHT22;56032;51.324;12.376;2022-07-23T12:33:00;22.40;99.90
15888;DHT22;56032;51.324;12.376;2022-07-23T12:35:32;22.40;99.90
15888;DHT22;56032;51.324;12.376;2022-07-23T12:38:02;22.50;99.90
15888;DHT22;56032;51.324;12.376;2022-07-23T12:40:33;22.30;99.90
15888;DHT22;56032;51.324;12.376;2022-07-23T12:43:06;22.40;99.90
15888;DHT22;56032;51.324;12.376;2022-07-23T12:45:42;22.60;99.90
15888;DHT22;56032;51.324;12.376;2022-07-23T12:48:15;22.70;99.90
15888;DHT22;56032;51.324;12.376;2022-07-23T12:50:57;22.80;99.90
15888;DHT22;56032;51.324;12.376;2022-07-23T12:53:27;22.80;99.90
15888;DHT22;56032;51.324;12.376;2022-07-23T12:56:01;22.70;99.90
15888;DHT22;56032;51.324;12.376;2022-07-23T12:58:42;22.50;99.90
15888;DHT22;56032;51.324;12.376;2022-07-23T13:01:22;22.30;99.90
15888;DHT22;56032;51.324;12.376;2022-07-23T13:03:56;22.30;99.90
15888;DHT22;56032;51.324;12.376;2022-07-23T13:06:25;22.20;99.90
15888;DHT22;56032;51.324;12.376;2022-07-23T13:08:53;22.20;99.90
15888;DHT22;56032;51.324;12.376;2022-07-23T13:11:24;22.20;99.90
15888;DHT22;56032;51.324;12.376;2022-07-23T13:13:53;22.40;99.90
15888;DHT22;56032;51.324;12.376;2022-07-23T13:16:22;22.70;99.90
15888;DHT22;56032;51.324;12.376;2022-07-23T13:18:54;22.80;99.90
15888;DHT22;56032;51.324;12.376;2022-07-23T13:21:25;22.80;99.90
15888;DHT22;56032;51.324;12.376;2022-07-23T13:23:54;23.00;99.90
15888;DHT22;56032;51.324;12.376;2022-07-23T13:26:24;23.00;99.90
15888;DHT22;56032;51.324;12.376;2022-07-23T13:28:53;22.80;99.90
15888;DHT22;56032;51.324;12.376;2022-07-23T13:31:21;22.80;99.90
15888;DHT22;56032;51.324;12.376;2022-07-23T13:33:50;23.00;99.90
15888;DHT22;56032;51.324;12.376;2022-07-23T13:36:18;23.30;99.90
15888;DHT22;56032;51.324;12.376;2022-07-23T13:38:47;23.50;99.90
15888;DHT22;56032;51.324;12.376;2022-07-23T13:41:16;23.40;99.90
15888;DHT22;56032;51.324;12.376;2022-07-23T13:43:46;23.50;99.90
15888;DHT22;56032;51.324;12.376;2022-07-23T13:46:18;23.40;99.90
15888;DHT22;56032;51.324;12.376;2022-07-23T13:48:47;23.50;99.90
15888;DHT22;56032;51.324;12.376;2022-07-23T13:51:15;23.50;99.90
15888;DHT22;56032;51.324;12.376;2022-07-23T13:53:46;23.50;99.90
15888;DHT22;56032;51.324;12.376;2022-07-23T13:56:15;23.60;99.90
15888;DHT22;56032;51.324;12.376;2022-07-23T13:58:44;23.70;99.90
15888;DHT22;56032;51.324;12.376;2022-07-23T14:01:14;23.60;99.90
15888;DHT22;56032;51.324;12.376;2022-07-23T14:03:44;23.80;99.90
15888;DHT22;56032;51.324;12.376;2022-07-23T14:06:14;23.90;99.90
15888;DHT22;56032;51.324;12.376;2022-07-23T14:08:42;24.10;99.90
15888;DHT22;56032;51.324;12.376;2022-07-23T14:11:11;24.20;99.90
15888;DHT22;56032;51.324;12.376;2022-07-23T14:13:40;24.30;99.90
15888;DHT22;56032;51.324;12.376;2022-07-23T14:16:13;24.10;99.90
15888;DHT22;56032;51.324;12.376;2022-07-23T14:18:42;24.10;99.90
15888;DHT22;56032;51.324;12.376;2022-07-23T14:21:12;23.90;99.90
15888;DHT22;56032;51.324;12.376;2022-07-23T14:23:41;23.80;99.90
15888;DHT22;56032;51.324;12.376;2022-07-23T14:26:10;23.70;99.90
15888;DHT22;56032;51.324;12.376;2022-07-23T14:28:40;23.50;99.90
15888;DHT22;56032;51.324;12.376;2022-07-23T14:31:09;23.60;99.90
15888;DHT22;56032;51.324;12.376;2022-07-23T14:33:48;23.80;99.90
15888;DHT22;56032;51.324;12.376;2022-07-23T14:36:16;23.80;99.90
15888;DHT22;56032;51.324;12.376;2022-07-23T14:38:46;24.10;99.90
15888;DHT22;56032;51.324;12.376;2022-07-23T14:41:15;24.10;99.90
15888;DHT22;56032;51.324;12.376;2022-07-23T14:43:44;24.30;99.90
15888;DHT22;56032;51.324;12.376;2022-07-23T14:46:13;24.40;99.90
15888;DHT22;56032;51.324;12.376;2022-07-23T14:48:42;24.20;99.90
15888;DHT22;56032;51.324;12.376;2022-07-23T14:51:12;24.00;99.90
15888;DHT22;56032;51.324;12.376;2022-07-23T14:53:40;24.00;99.90
15888;DHT22;56032;51.324;12.376;2022-07-23T14:56:08;24.30;99.90
15888;DHT22;56032;51.324;12.376;2022-07-23T14:58:40;24.50;99.90
15888;DHT22;56032;51.324;12.376;2022-07-23T15:01:09;24.30;99.90
15888;DHT22;56032;51.324;12.376;2022-07-23T15:03:38;24.30;99.90
15888;DHT22;56032;51.324;12.376;2022-07-23T15:06:27;24.50;99.90
15888;DHT22;56032;51.324;12.376;2022-07-23T15:08:56;24.50;99.90
15888;DHT22;56032;51.324;12.376;2022-07-23T15:11:25;24.50;99.90
15888;DHT22;56032;51.324;12.376;2022-07-23T15:13:54;24.30;99.90
15888;DHT22;56032;51.324;12.376;2022-07-23T15:16:22;24.00;99.90
15888;DHT22;56032;51.324;12.376;2022-07-23T15:18:51;24.00;99.90
15888;DHT22;56032;51.324;12.376;2022-07-23T15:21:20;24.00;99.90
15888;DHT22;56032;51.324;12.376;2022-07-23T15:23:49;23.80;99.90
15888;DHT22;56032;51.324;12.376;2022-07-23T15:26:19;23.70;99.90
15888;DHT22;56032;51.324;12.376;2022-07-23T15:28:49;23.70;99.90
15888;DHT22;56032;51.324;12.376;2022-07-23T15:31:18;23.90;99.90
15888;DHT22;56032;51.324;12.376;2022-07-23T15:33:46;24.20;99.90
15888;DHT22;56032;51.324;12.376;2022-07-23T15:36:16;24.20;99.90
15888;DHT22;56032;51.324;12.376;2022-07-23T15:38:47;24.20;99.90
15888;DHT22;56032;51.324;12.376;2022-07-23T15:41:19;24.10;99.90
15888;DHT22;56032;51.324;12.376;2022-07-23T15:43:47;24.10;99.90
15888;DHT22;56032;51.324;12.376;2022-07-23T15:46:16;24.10;99.90
15888;DHT22;56032;51.324;12.376;2022-07-23T15:48:50;24.20;99.90